createdAt,value
2018-12-03T00:02:01.930Z,88.13
2018-12-03T00:04:32.052Z,74.50
2018-12-03T00:07:01.982Z,65.70
2018-12-03T00:09:31.852Z,76.80
2018-12-03T00:12:01.749Z,59.53
2018-12-03T00:14:31.618Z,68.53
2018-12-03T00:17:01.487Z,69.40
2018-12-03T00:19:31.472Z,69.33
2018-12-03T00:22:01.413Z,71.40
2018-12-03T00:24:31.602Z,69.97
2018-12-03T00:27:01.712Z,66.47
2018-12-03T00:29:31.750Z,62.00
2018-12-03T00:32:01.800Z,62.37
2018-12-03T00:34:31.824Z,63.67
2018-12-03T00:37:01.742Z,64.20
2018-12-03T00:39:31.835Z,50.50
2018-12-03T00:42:01.781Z,66.87
2018-12-03T00:44:31.765Z,68.73
2018-12-03T00:47:01.683Z,57.70
2018-12-03T00:49:31.554Z,65.43
2018-12-03T00:52:01.396Z,65.03
2018-12-03T00:54:31.287Z,57.97
2018-12-03T00:57:01.126Z,59.43
2018-12-03T00:59:30.910Z,59.50
2018-12-03T01:02:00.725Z,53.47
2018-12-03T01:04:30.556Z,51.77
2018-12-03T01:07:00.394Z,51.40
2018-12-03T01:09:30.191Z,47.43
2018-12-03T01:12:00.069Z,55.60
2018-12-03T01:14:29.857Z,51.70
2018-12-03T01:16:59.777Z,53.17
2018-12-03T01:19:29.610Z,50.93
2018-12-03T01:21:59.494Z,39.60
2018-12-03T01:24:29.278Z,49.53
2018-12-03T01:26:59.087Z,50.87
2018-12-03T01:29:28.965Z,57.43
2018-12-03T01:31:58.832Z,51.00
2018-12-03T01:34:28.596Z,52.40
2018-12-03T01:36:58.290Z,48.57
2018-12-03T01:39:28.095Z,51.33
2018-12-03T01:41:57.825Z,38.17
2018-12-03T01:44:27.620Z,42.60
2018-12-03T01:46:58.402Z,43.97
2018-12-03T01:49:28.256Z,49.30
2018-12-03T01:51:58.072Z,44.13
2018-12-03T01:54:27.917Z,47.13
2018-12-03T01:56:57.713Z,40.93
2018-12-03T01:59:27.542Z,35.53
2018-12-03T02:01:58.475Z,43.00
2018-12-03T02:04:34.767Z,36.70
2018-12-03T02:07:04.566Z,47.23
2018-12-03T02:09:34.357Z,39.00
2018-12-03T02:12:04.171Z,43.60
2018-12-03T02:14:33.901Z,40.63
2018-12-03T02:17:03.646Z,39.43
2018-12-03T02:19:33.407Z,35.13
2018-12-03T02:22:03.177Z,41.27
2018-12-03T02:24:32.935Z,39.03
2018-12-03T02:27:02.713Z,33.77
2018-12-03T02:29:32.445Z,36.50
2018-12-03T02:32:02.180Z,28.37
2018-12-03T02:34:31.902Z,32.00
2018-12-03T02:37:01.775Z,36.73
2018-12-03T02:39:31.579Z,27.20
2018-12-03T02:42:01.529Z,32.70
2018-12-03T02:44:31.378Z,30.07
2018-12-03T02:47:01.112Z,26.67
2018-12-03T02:49:30.910Z,32.17
2018-12-03T02:52:00.752Z,26.43
2018-12-03T02:54:30.530Z,32.77
2018-12-03T02:57:00.344Z,32.17
2018-12-03T02:59:30.109Z,34.00
2018-12-03T03:01:59.883Z,30.17
2018-12-03T03:04:30.691Z,26.67
2018-12-03T03:07:00.509Z,33.40
2018-12-03T03:09:30.471Z,34.53
2018-12-03T03:12:00.243Z,38.50
2018-12-03T03:14:29.993Z,27.13
2018-12-03T03:16:59.754Z,37.47
2018-12-03T03:19:29.619Z,49.73
2018-12-03T03:21:59.453Z,37.27
2018-12-03T03:24:29.192Z,37.07
2018-12-03T03:26:59.007Z,48.20
2018-12-03T03:29:28.726Z,41.73
2018-12-03T03:31:58.514Z,51.43
2018-12-03T03:34:28.325Z,48.57
2018-12-03T03:36:58.208Z,52.60
2018-12-03T03:39:28.146Z,58.50
2018-12-03T03:41:58.021Z,45.60
2018-12-03T03:44:27.858Z,52.77
2018-12-03T03:46:57.676Z,54.93
2018-12-03T03:49:27.521Z,54.60
2018-12-03T03:51:57.350Z,58.47
2018-12-03T03:54:27.149Z,57.77
2018-12-03T03:56:56.969Z,50.20
2018-12-03T03:59:26.817Z,41.10
2018-12-03T04:01:56.433Z,42.73
2018-12-03T04:04:26.141Z,36.97
2018-12-03T04:06:55.877Z,38.37
2018-12-03T04:09:25.784Z,40.20
2018-12-03T04:11:55.610Z,39.47
2018-12-03T04:14:25.436Z,40.30
2018-12-03T04:16:55.193Z,34.77
2018-12-03T04:19:24.935Z,34.43
2018-12-03T04:21:54.798Z,36.73
2018-12-03T04:24:24.712Z,31.73
2018-12-03T04:26:54.427Z,33.83
2018-12-03T04:29:24.238Z,33.47
2018-12-03T04:31:53.945Z,37.40
2018-12-03T04:34:23.803Z,33.93
2018-12-03T04:36:53.609Z,37.87
2018-12-03T04:39:23.406Z,38.73
2018-12-03T04:41:53.215Z,38.67
2018-12-03T04:44:23.050Z,36.47
2018-12-03T04:46:52.894Z,48.73
2018-12-03T04:49:22.613Z,49.60
2018-12-03T04:51:52.365Z,47.23
2018-12-03T04:54:22.072Z,59.60
2018-12-03T04:56:51.840Z,52.80
2018-12-03T04:59:21.691Z,50.60
2018-12-03T05:01:51.658Z,55.63
2018-12-03T05:04:21.541Z,53.63
2018-12-03T05:06:51.676Z,60.60
2018-12-03T05:09:21.274Z,64.00
2018-12-03T05:11:51.069Z,67.17
2018-12-03T05:14:20.925Z,66.83
2018-12-03T05:16:50.810Z,50.33
2018-12-03T05:19:21.573Z,61.20
2018-12-03T05:21:51.371Z,48.87
2018-12-03T05:24:21.334Z,47.27
2018-12-03T05:26:51.092Z,53.67
2018-12-03T05:29:20.973Z,45.80
2018-12-03T05:31:50.785Z,47.13
2018-12-03T05:34:20.474Z,52.83
2018-12-03T05:36:50.334Z,55.80
2018-12-03T05:39:20.276Z,67.47
2018-12-03T05:41:50.170Z,56.27
2018-12-03T05:44:20.066Z,58.37
2018-12-03T05:46:49.841Z,71.07
2018-12-03T05:49:19.822Z,76.00
2018-12-03T05:51:49.980Z,62.43
2018-12-03T05:54:20.007Z,56.27
2018-12-03T05:56:49.891Z,84.33
2018-12-03T05:59:19.692Z,70.70
2018-12-03T06:01:49.429Z,82.50
2018-12-03T06:04:19.369Z,73.93
2018-12-03T06:06:49.217Z,81.13
2018-12-03T06:09:18.974Z,71.63
2018-12-03T06:11:48.762Z,62.33
2018-12-03T06:14:18.629Z,72.90
2018-12-03T06:16:48.361Z,59.67
2018-12-03T06:19:18.321Z,60.90
2018-12-03T06:21:52.166Z,59.77
2018-12-03T06:24:22.045Z,69.60
2018-12-03T06:26:51.917Z,72.43
2018-12-03T06:29:21.723Z,89.83
2018-12-03T06:32:03.486Z,99.00
2018-12-03T06:34:36.151Z,68.67
2018-12-03T06:37:06.179Z,85.17
2018-12-03T06:39:36.189Z,77.37
2018-12-03T06:42:06.364Z,66.13
2018-12-03T06:44:36.206Z,60.00
2018-12-03T06:47:07.262Z,73.97
2018-12-03T06:49:37.200Z,56.67
2018-12-03T06:52:07.273Z,75.70
2018-12-03T06:54:37.142Z,68.87
2018-12-03T06:57:07.402Z,68.50
2018-12-03T06:59:37.355Z,69.10
2018-12-03T07:02:07.817Z,72.70
2018-12-03T07:04:37.936Z,85.50
2018-12-03T07:07:08.017Z,78.77
2018-12-03T07:09:38.005Z,67.83
2018-12-03T07:12:08.110Z,63.57
2018-12-03T07:14:38.120Z,75.63
2018-12-03T07:17:08.264Z,68.87
2018-12-03T07:19:38.570Z,66.13
2018-12-03T07:22:08.592Z,60.07
2018-12-03T07:24:38.649Z,59.07
2018-12-03T07:27:08.798Z,58.50
2018-12-03T07:29:38.712Z,63.53
2018-12-03T07:32:08.794Z,69.40
2018-12-03T07:34:39.066Z,59.93
2018-12-03T07:37:09.164Z,71.80
2018-12-03T07:39:39.074Z,88.00
2018-12-03T07:42:09.050Z,83.47
2018-12-03T07:44:39.000Z,84.00
2018-12-03T07:47:08.989Z,92.07
2018-12-03T07:49:38.754Z,94.27
2018-12-03T07:52:09.144Z,92.07
2018-12-03T07:54:39.119Z,73.20
2018-12-03T07:57:09.183Z,85.10
2018-12-03T07:59:38.984Z,85.53
2018-12-03T15:25:53.485Z,43.53
2018-12-03T15:28:23.430Z,39.87
2018-12-03T15:30:53.497Z,43.43
2018-12-03T15:33:23.717Z,43.13
2018-12-03T15:35:54.288Z,43.47
2018-12-03T15:38:24.552Z,36.00
2018-12-03T15:40:55.552Z,41.50
2018-12-03T15:43:25.689Z,38.27
2018-12-03T15:45:55.428Z,33.00
2018-12-03T15:48:26.395Z,37.50
2018-12-03T15:50:56.172Z,32.43
2018-12-03T15:53:25.902Z,29.43
2018-12-03T15:55:55.763Z,27.33
2018-12-03T15:58:25.414Z,29.73
2018-12-03T16:00:55.354Z,28.27
2018-12-03T16:03:25.105Z,26.90
2018-12-03T16:05:54.961Z,28.87
2018-12-03T16:08:24.800Z,26.80
2018-12-03T16:10:54.791Z,28.20
2018-12-03T16:13:31.665Z,34.83
2018-12-03T16:16:03.937Z,36.83
2018-12-03T16:18:34.866Z,31.07
2018-12-03T16:21:08.250Z,30.63
2018-12-03T16:23:55.913Z,28.47
2018-12-03T16:26:25.901Z,30.00
2018-12-03T16:28:55.528Z,36.80
2018-12-03T16:31:26.279Z,34.87
2018-12-03T16:33:56.077Z,33.43
2018-12-03T16:36:26.045Z,37.50
2018-12-03T16:38:55.808Z,32.13
2018-12-03T16:41:25.477Z,32.40
2018-12-03T16:43:55.157Z,33.23
2018-12-03T16:46:24.823Z,36.40
2018-12-03T16:48:54.476Z,39.40
2018-12-03T16:51:24.167Z,34.63
2018-12-03T16:53:53.772Z,35.63
2018-12-03T16:56:23.379Z,34.90
2018-12-03T16:58:52.978Z,37.83
2018-12-03T17:01:22.644Z,39.33
2018-12-03T17:03:52.266Z,47.37
2018-12-03T17:06:21.857Z,45.57
2018-12-03T17:08:51.535Z,46.57
2018-12-03T17:11:21.105Z,40.27
2018-12-03T17:13:50.802Z,41.07
2018-12-03T17:16:20.354Z,39.17
2018-12-03T17:18:52.047Z,42.10
2018-12-03T17:22:37.521Z,31.90
2018-12-03T17:25:13.252Z,36.97
2018-12-03T17:27:42.948Z,32.83
2018-12-03T17:30:13.403Z,30.03
2018-12-03T17:32:42.939Z,32.03
2018-12-03T17:35:12.647Z,31.60
2018-12-03T17:37:42.333Z,33.07
2018-12-03T17:40:12.368Z,33.20
2018-12-03T17:42:42.055Z,39.30
2018-12-03T17:45:13.355Z,41.53
2018-12-03T17:47:43.117Z,44.17
2018-12-03T17:50:12.713Z,42.13
2018-12-03T17:52:42.490Z,40.27
2018-12-03T17:55:12.235Z,44.17
2018-12-03T17:57:44.194Z,39.30
2018-12-03T18:00:15.054Z,42.63
2018-12-03T18:02:44.852Z,41.57
2018-12-03T18:05:16.078Z,43.73
2018-12-03T18:07:46.768Z,40.27
2018-12-03T18:10:16.427Z,45.03
2018-12-03T18:12:46.152Z,43.23
2018-12-03T18:15:15.927Z,44.20
2018-12-03T18:17:45.518Z,46.67
2018-12-03T18:20:15.212Z,41.90
2018-12-03T18:22:44.951Z,42.03
2018-12-03T18:25:14.684Z,43.10
2018-12-03T18:27:44.419Z,38.57
2018-12-03T18:30:14.224Z,43.27
2018-12-03T18:32:43.870Z,50.13
2018-12-03T18:35:13.638Z,48.63
2018-12-03T18:37:43.339Z,50.33
2018-12-03T18:40:13.816Z,52.17
2018-12-03T18:42:45.495Z,54.80
2018-12-03T18:45:15.212Z,56.93
2018-12-03T18:47:45.044Z,57.67
2018-12-03T18:50:20.205Z,59.17
2018-12-03T18:52:49.933Z,59.70
2018-12-03T18:55:19.620Z,58.23
2018-12-03T18:57:53.329Z,57.63
2018-12-03T19:00:23.262Z,50.10
2018-12-03T19:02:52.938Z,58.30
2018-12-03T19:05:22.698Z,65.57
2018-12-03T19:07:52.481Z,69.67
2018-12-03T19:10:22.305Z,70.60
2018-12-03T19:12:52.528Z,81.77
2018-12-03T19:15:23.520Z,81.07
2018-12-03T19:17:53.766Z,82.83
2018-12-03T19:20:26.335Z,85.87
2018-12-03T19:22:56.128Z,119.27
2018-12-03T19:25:25.762Z,76.50
2018-12-03T19:27:55.551Z,103.37
2018-12-03T19:30:25.179Z,91.00
2018-12-03T19:32:56.878Z,86.23
2018-12-03T19:35:30.152Z,91.30
2018-12-03T19:38:04.163Z,72.43
2018-12-03T19:40:35.227Z,88.93
2018-12-03T19:43:05.774Z,81.87
2018-12-03T19:45:36.968Z,69.87
2018-12-03T19:48:07.452Z,77.07
2018-12-03T19:50:38.961Z,74.87
2018-12-03T19:53:09.996Z,66.27
2018-12-03T19:55:39.894Z,74.03
2018-12-03T19:58:43.167Z,67.33
2018-12-03T20:01:14.926Z,70.57
2018-12-03T20:03:44.823Z,62.23
2018-12-03T20:06:14.762Z,85.60
2018-12-03T20:08:44.435Z,91.00
2018-12-03T20:11:14.355Z,83.07
2018-12-03T20:13:44.002Z,82.90
2018-12-03T20:16:13.881Z,89.23
2018-12-03T20:18:43.731Z,75.20
2018-12-03T20:21:16.799Z,80.53
2018-12-03T20:23:52.311Z,73.90
2018-12-03T20:26:26.922Z,80.73
2018-12-03T20:29:06.980Z,76.13
2018-12-03T20:31:44.086Z,69.70
2018-12-03T20:34:31.708Z,73.07
2018-12-03T20:37:18.721Z,73.33
2018-12-03T20:40:01.167Z,67.93
2018-12-03T20:42:34.607Z,72.20
2018-12-03T20:45:52.719Z,64.00
2018-12-03T20:48:29.424Z,68.37
2018-12-03T20:51:07.601Z,71.37
2018-12-03T20:53:42.889Z,70.67
2018-12-03T20:56:13.081Z,64.80
2018-12-03T20:58:42.871Z,77.83
2018-12-03T21:01:12.689Z,59.30
2018-12-03T21:03:42.734Z,55.30
2018-12-03T21:06:12.732Z,61.90
2018-12-03T21:08:42.699Z,69.47
2018-12-03T21:11:12.657Z,73.80
2018-12-03T21:13:42.694Z,73.47
2018-12-03T21:16:12.652Z,81.63
2018-12-03T21:18:42.456Z,74.00
2018-12-03T21:21:12.954Z,76.20
2018-12-03T21:23:42.751Z,75.40
2018-12-03T21:26:12.772Z,69.33
2018-12-03T21:28:42.974Z,77.43
2018-12-03T21:31:12.946Z,72.40
2018-12-03T21:33:42.926Z,70.03
2018-12-03T21:36:12.891Z,66.20
2018-12-03T21:38:43.001Z,69.10
2018-12-03T21:41:12.837Z,69.07
2018-12-03T21:43:42.601Z,79.43
2018-12-03T21:46:12.345Z,72.13
2018-12-03T21:48:42.033Z,70.40
2018-12-03T21:51:11.844Z,67.67
2018-12-03T21:53:41.780Z,63.43
2018-12-03T21:56:11.624Z,58.40
2018-12-03T21:58:41.485Z,63.93
2018-12-03T22:01:11.356Z,60.50
2018-12-03T22:03:41.274Z,68.47
2018-12-03T22:06:10.997Z,63.00
2018-12-03T22:08:40.778Z,63.33
2018-12-03T22:11:10.590Z,62.70
2018-12-03T22:13:40.535Z,72.77
2018-12-03T22:16:10.332Z,72.80
2018-12-03T22:18:40.277Z,74.80
2018-12-03T22:21:10.283Z,65.93
2018-12-03T22:23:40.163Z,89.57
2018-12-03T22:26:09.958Z,75.13
2018-12-03T22:28:39.882Z,69.77
2018-12-03T22:31:09.717Z,67.30
2018-12-03T22:33:43.554Z,67.07
2018-12-03T22:36:13.703Z,68.90
2018-12-03T22:38:43.561Z,61.90
2018-12-03T22:41:13.618Z,60.37
2018-12-03T22:43:44.408Z,62.10
2018-12-03T22:46:14.340Z,62.27
2018-12-03T22:48:45.463Z,62.37
2018-12-03T22:51:15.361Z,65.37
2018-12-03T22:53:45.395Z,56.37
2018-12-03T22:56:15.113Z,63.17
2018-12-03T22:58:44.843Z,63.47
2018-12-03T23:01:18.905Z,58.30
2018-12-03T23:03:48.877Z,52.53
2018-12-03T23:06:18.738Z,50.63
2018-12-03T23:08:49.714Z,54.37
2018-12-03T23:11:19.449Z,48.57
2018-12-03T23:13:49.281Z,46.97
2018-12-03T23:16:19.124Z,50.40
2018-12-03T23:18:48.988Z,52.67
2018-12-03T23:21:18.810Z,57.37
2018-12-03T23:23:48.609Z,60.13
2018-12-03T23:26:18.723Z,59.10
2018-12-03T23:28:48.446Z,50.43
2018-12-03T23:31:18.358Z,57.33
2018-12-03T23:33:54.410Z,48.13
2018-12-03T23:36:25.315Z,55.17
2018-12-03T23:38:55.091Z,48.00
2018-12-03T23:41:24.973Z,46.00
2018-12-03T23:43:54.608Z,47.97
2018-12-03T23:46:24.365Z,51.97
2018-12-03T23:48:54.076Z,46.20
2018-12-03T23:51:23.800Z,46.93
2018-12-03T23:53:53.569Z,50.67
2018-12-03T23:56:23.356Z,48.83
2018-12-03T23:58:53.190Z,46.10
